sensor_id;sensor_type;location;lat;lon;timestamp;P1;durP1;ratioP1;P2;durP2;ratioP2
75691;SDS011;64307;52.508;6.090;2023-07-20T00:02:10;2.43;;;0.50;;
75691;SDS011;64307;52.508;6.090;2023-07-20T00:04:35;2.43;;;0.73;;
75691;SDS011;64307;52.508;6.090;2023-07-20T00:07:00;2.50;;;0.60;;
75691;SDS011;64307;52.508;6.090;2023-07-20T00:09:26;2.42;;;0.73;;
75691;SDS011;64307;52.508;6.090;2023-07-20T00:11:52;2.30;;;0.70;;
75691;SDS011;64307;52.508;6.090;2023-07-20T00:14:18;2.42;;;0.63;;
75691;SDS011;64307;52.508;6.090;2023-07-20T00:16:44;2.55;;;0.93;;
75691;SDS011;64307;52.508;6.090;2023-07-20T00:19:11;1.90;;;0.80;;
75691;SDS011;64307;52.508;6.090;2023-07-20T00:21:37;2.05;;;0.65;;
75691;SDS011;64307;52.508;6.090;2023-07-20T00:24:05;1.85;;;0.95;;
75691;SDS011;64307;52.508;6.090;2023-07-20T00:26:30;3.50;;;0.85;;
75691;SDS011;64307;52.508;6.090;2023-07-20T00:28:56;2.25;;;0.75;;
75691;SDS011;64307;52.508;6.090;2023-07-20T00:31:21;2.05;;;0.85;;
75691;SDS011;64307;52.508;6.090;2023-07-20T00:33:46;2.15;;;1.08;;
75691;SDS011;64307;52.508;6.090;2023-07-20T00:36:12;2.30;;;1.10;;
75691;SDS011;64307;52.508;6.090;2023-07-20T00:38:37;3.97;;;1.17;;
75691;SDS011;64307;52.508;6.090;2023-07-20T00:41:03;2.45;;;0.98;;
75691;SDS011;64307;52.508;6.090;2023-07-20T00:43:28;2.72;;;1.05;;
75691;SDS011;64307;52.508;6.090;2023-07-20T00:45:53;3.05;;;1.45;;
75691;SDS011;64307;52.508;6.090;2023-07-20T00:48:18;3.42;;;0.93;;
75691;SDS011;64307;52.508;6.090;2023-07-20T00:50:44;2.38;;;1.15;;
75691;SDS011;64307;52.508;6.090;2023-07-20T00:53:11;2.25;;;0.90;;
75691;SDS011;64307;52.508;6.090;2023-07-20T00:55:36;4.88;;;1.77;;
75691;SDS011;64307;52.508;6.090;2023-07-20T00:58:02;2.42;;;1.58;;
75691;SDS011;64307;52.508;6.090;2023-07-20T01:00:30;2.55;;;1.50;;
75691;SDS011;64307;52.508;6.090;2023-07-20T01:02:56;3.85;;;1.92;;
75691;SDS011;64307;52.508;6.090;2023-07-20T01:05:21;3.20;;;1.40;;
75691;SDS011;64307;52.508;6.090;2023-07-20T01:08:05;2.97;;;1.67;;
75691;SDS011;64307;52.508;6.090;2023-07-20T01:10:40;2.55;;;1.63;;
75691;SDS011;64307;52.508;6.090;2023-07-20T01:13:14;2.33;;;1.23;;
75691;SDS011;64307;52.508;6.090;2023-07-20T01:15:40;3.72;;;1.75;;
75691;SDS011;64307;52.508;6.090;2023-07-20T01:18:05;3.30;;;1.85;;
75691;SDS011;64307;52.508;6.090;2023-07-20T01:20:31;2.77;;;1.40;;
75691;SDS011;64307;52.508;6.090;2023-07-20T01:28:12;3.15;;;1.60;;
75691;SDS011;64307;52.508;6.090;2023-07-20T01:31:12;3.47;;;1.20;;
75691;SDS011;64307;52.508;6.090;2023-07-20T01:33:47;2.53;;;1.27;;
75691;SDS011;64307;52.508;6.090;2023-07-20T01:36:16;2.63;;;1.35;;
75691;SDS011;64307;52.508;6.090;2023-07-20T01:38:42;3.15;;;1.60;;
75691;SDS011;64307;52.508;6.090;2023-07-20T01:41:09;3.92;;;1.75;;
75691;SDS011;64307;52.508;6.090;2023-07-20T01:43:36;3.33;;;1.95;;
75691;SDS011;64307;52.508;6.090;2023-07-20T01:46:01;3.80;;;2.15;;
75691;SDS011;64307;52.508;6.090;2023-07-20T01:48:26;4.78;;;2.30;;
75691;SDS011;64307;52.508;6.090;2023-07-20T01:50:52;4.07;;;2.22;;
75691;SDS011;64307;52.508;6.090;2023-07-20T01:53:17;3.80;;;2.20;;
75691;SDS011;64307;52.508;6.090;2023-07-20T01:55:42;4.03;;;2.53;;
75691;SDS011;64307;52.508;6.090;2023-07-20T01:58:08;5.35;;;2.33;;
75691;SDS011;64307;52.508;6.090;2023-07-20T02:00:33;4.18;;;2.22;;
75691;SDS011;64307;52.508;6.090;2023-07-20T02:02:58;5.37;;;2.73;;
75691;SDS011;64307;52.508;6.090;2023-07-20T02:05:24;4.15;;;2.38;;
75691;SDS011;64307;52.508;6.090;2023-07-20T02:07:50;3.88;;;2.13;;
75691;SDS011;64307;52.508;6.090;2023-07-20T02:10:16;3.95;;;2.53;;
75691;SDS011;64307;52.508;6.090;2023-07-20T02:12:41;4.65;;;1.98;;
75691;SDS011;64307;52.508;6.090;2023-07-20T02:15:07;4.70;;;2.50;;
75691;SDS011;64307;52.508;6.090;2023-07-20T02:17:33;3.83;;;2.05;;
75691;SDS011;64307;52.508;6.090;2023-07-20T02:19:58;3.97;;;2.75;;
75691;SDS011;64307;52.508;6.090;2023-07-20T02:22:24;4.88;;;3.33;;
75691;SDS011;64307;52.508;6.090;2023-07-20T02:24:50;4.85;;;2.42;;
75691;SDS011;64307;52.508;6.090;2023-07-20T02:27:16;3.20;;;2.08;;
75691;SDS011;64307;52.508;6.090;2023-07-20T02:29:42;5.18;;;2.80;;
75691;SDS011;64307;52.508;6.090;2023-07-20T02:32:08;4.25;;;2.58;;
75691;SDS011;64307;52.508;6.090;2023-07-20T02:34:34;5.63;;;2.80;;
75691;SDS011;64307;52.508;6.090;2023-07-20T02:37:00;6.20;;;2.67;;
75691;SDS011;64307;52.508;6.090;2023-07-20T02:39:27;6.47;;;2.85;;
75691;SDS011;64307;52.508;6.090;2023-07-20T02:41:52;4.05;;;2.80;;
75691;SDS011;64307;52.508;6.090;2023-07-20T02:44:19;4.65;;;2.72;;
75691;SDS011;64307;52.508;6.090;2023-07-20T02:46:45;4.65;;;2.97;;
75691;SDS011;64307;52.508;6.090;2023-07-20T02:49:10;5.75;;;2.92;;
75691;SDS011;64307;52.508;6.090;2023-07-20T02:51:35;4.50;;;3.00;;
75691;SDS011;64307;52.508;6.090;2023-07-20T02:54:01;4.68;;;2.65;;
75691;SDS011;64307;52.508;6.090;2023-07-20T02:56:26;4.43;;;2.97;;
75691;SDS011;64307;52.508;6.090;2023-07-20T02:58:52;5.93;;;2.80;;
75691;SDS011;64307;52.508;6.090;2023-07-20T03:01:18;4.97;;;2.97;;
75691;SDS011;64307;52.508;6.090;2023-07-20T03:03:43;4.00;;;2.65;;
75691;SDS011;64307;52.508;6.090;2023-07-20T03:06:11;5.72;;;3.10;;
75691;SDS011;64307;52.508;6.090;2023-07-20T03:08:38;5.68;;;3.08;;
75691;SDS011;64307;52.508;6.090;2023-07-20T03:11:03;7.03;;;3.55;;
75691;SDS011;64307;52.508;6.090;2023-07-20T03:13:28;5.13;;;3.33;;
75691;SDS011;64307;52.508;6.090;2023-07-20T03:15:55;4.93;;;3.38;;
75691;SDS011;64307;52.508;6.090;2023-07-20T03:18:22;4.77;;;3.80;;
75691;SDS011;64307;52.508;6.090;2023-07-20T03:20:47;5.07;;;3.40;;
75691;SDS011;64307;52.508;6.090;2023-07-20T03:23:13;7.45;;;3.83;;
75691;SDS011;64307;52.508;6.090;2023-07-20T03:25:40;5.82;;;4.43;;
75691;SDS011;64307;52.508;6.090;2023-07-20T03:28:05;5.57;;;3.58;;
75691;SDS011;64307;52.508;6.090;2023-07-20T03:30:30;5.43;;;3.47;;
75691;SDS011;64307;52.508;6.090;2023-07-20T03:32:56;5.03;;;3.63;;
75691;SDS011;64307;52.508;6.090;2023-07-20T03:35:21;5.90;;;3.65;;
75691;SDS011;64307;52.508;6.090;2023-07-20T03:37:47;6.60;;;3.83;;
75691;SDS011;64307;52.508;6.090;2023-07-20T03:40:12;5.95;;;3.40;;
75691;SDS011;64307;52.508;6.090;2023-07-20T03:42:39;5.97;;;3.47;;
75691;SDS011;64307;52.508;6.090;2023-07-20T03:45:05;7.15;;;3.83;;
75691;SDS011;64307;52.508;6.090;2023-07-20T03:47:31;6.63;;;4.65;;
75691;SDS011;64307;52.508;6.090;2023-07-20T03:49:56;6.15;;;4.22;;
75691;SDS011;64307;52.508;6.090;2023-07-20T03:52:22;4.97;;;3.63;;
75691;SDS011;64307;52.508;6.090;2023-07-20T03:54:48;8.25;;;3.72;;
75691;SDS011;64307;52.508;6.090;2023-07-20T03:57:13;6.28;;;3.95;;
75691;SDS011;64307;52.508;6.090;2023-07-20T03:59:40;6.10;;;3.90;;
75691;SDS011;64307;52.508;6.090;2023-07-20T04:02:10;6.05;;;3.90;;
75691;SDS011;64307;52.508;6.090;2023-07-20T04:04:35;8.00;;;3.80;;
75691;SDS011;64307;52.508;6.090;2023-07-20T04:07:01;5.97;;;4.03;;
75691;SDS011;64307;52.508;6.090;2023-07-20T04:09:26;5.85;;;3.92;;
75691;SDS011;64307;52.508;6.090;2023-07-20T04:11:51;5.97;;;4.40;;
75691;SDS011;64307;52.508;6.090;2023-07-20T04:14:17;5.78;;;3.60;;
75691;SDS011;64307;52.508;6.090;2023-07-20T04:16:42;6.07;;;4.13;;
75691;SDS011;64307;52.508;6.090;2023-07-20T04:19:07;6.27;;;3.47;;
75691;SDS011;64307;52.508;6.090;2023-07-20T04:21:39;5.60;;;3.47;;
75691;SDS011;64307;52.508;6.090;2023-07-20T04:24:06;5.05;;;3.42;;
75691;SDS011;64307;52.508;6.090;2023-07-20T04:26:31;4.80;;;3.53;;
75691;SDS011;64307;52.508;6.090;2023-07-20T04:28:56;5.30;;;3.67;;
75691;SDS011;64307;52.508;6.090;2023-07-20T04:31:21;4.87;;;3.10;;
75691;SDS011;64307;52.508;6.090;2023-07-20T04:33:47;5.00;;;3.40;;
75691;SDS011;64307;52.508;6.090;2023-07-20T04:36:12;6.40;;;3.50;;
75691;SDS011;64307;52.508;6.090;2023-07-20T04:38:39;5.70;;;3.63;;
75691;SDS011;64307;52.508;6.090;2023-07-20T04:41:04;6.40;;;3.33;;
75691;SDS011;64307;52.508;6.090;2023-07-20T04:43:31;4.77;;;3.00;;
75691;SDS011;64307;52.508;6.090;2023-07-20T04:45:56;5.50;;;3.58;;
75691;SDS011;64307;52.508;6.090;2023-07-20T04:48:21;6.13;;;3.58;;
75691;SDS011;64307;52.508;6.090;2023-07-20T04:50:47;8.98;;;3.70;;
75691;SDS011;64307;52.508;6.090;2023-07-20T04:53:12;6.05;;;3.50;;
75691;SDS011;64307;52.508;6.090;2023-07-20T04:55:38;5.85;;;3.00;;
75691;SDS011;64307;52.508;6.090;2023-07-20T04:58:04;4.78;;;2.90;;
75691;SDS011;64307;52.508;6.090;2023-07-20T05:00:31;4.03;;;2.15;;
75691;SDS011;64307;52.508;6.090;2023-07-20T05:02:58;4.25;;;2.20;;
75691;SDS011;64307;52.508;6.090;2023-07-20T05:05:23;4.40;;;1.45;;
75691;SDS011;64307;52.508;6.090;2023-07-20T05:07:48;4.95;;;1.42;;
75691;SDS011;64307;52.508;6.090;2023-07-20T05:10:14;3.45;;;1.42;;
75691;SDS011;64307;52.508;6.090;2023-07-20T05:12:39;4.18;;;1.10;;
75691;SDS011;64307;52.508;6.090;2023-07-20T05:15:04;3.92;;;1.25;;
75691;SDS011;64307;52.508;6.090;2023-07-20T05:17:30;3.50;;;1.10;;
75691;SDS011;64307;52.508;6.090;2023-07-20T05:19:55;5.05;;;1.23;;
75691;SDS011;64307;52.508;6.090;2023-07-20T05:22:20;8.40;;;1.20;;
75691;SDS011;64307;52.508;6.090;2023-07-20T05:24:46;2.03;;;0.82;;
75691;SDS011;64307;52.508;6.090;2023-07-20T05:27:11;3.63;;;1.15;;
75691;SDS011;64307;52.508;6.090;2023-07-20T05:29:37;2.45;;;1.02;;
75691;SDS011;64307;52.508;6.090;2023-07-20T05:32:02;3.92;;;1.13;;
75691;SDS011;64307;52.508;6.090;2023-07-20T05:34:28;2.80;;;0.82;;
75691;SDS011;64307;52.508;6.090;2023-07-20T05:36:53;2.83;;;1.23;;
75691;SDS011;64307;52.508;6.090;2023-07-20T05:39:19;2.72;;;0.80;;
75691;SDS011;64307;52.508;6.090;2023-07-20T05:41:44;2.87;;;0.80;;
75691;SDS011;64307;52.508;6.090;2023-07-20T05:44:10;3.65;;;0.95;;
75691;SDS011;64307;52.508;6.090;2023-07-20T05:46:35;3.05;;;0.82;;
75691;SDS011;64307;52.508;6.090;2023-07-20T05:49:01;1.90;;;0.73;;
75691;SDS011;64307;52.508;6.090;2023-07-20T05:51:26;1.88;;;0.70;;
75691;SDS011;64307;52.508;6.090;2023-07-20T05:53:52;1.80;;;0.55;;
75691;SDS011;64307;52.508;6.090;2023-07-20T05:56:17;1.87;;;0.43;;
75691;SDS011;64307;52.508;6.090;2023-07-20T05:58:42;3.15;;;0.43;;
75691;SDS011;64307;52.508;6.090;2023-07-20T06:01:08;2.65;;;0.43;;
75691;SDS011;64307;52.508;6.090;2023-07-20T06:03:34;2.50;;;0.43;;
75691;SDS011;64307;52.508;6.090;2023-07-20T06:05:59;2.42;;;0.57;;
75691;SDS011;64307;52.508;6.090;2023-07-20T06:08:26;2.15;;;0.32;;
75691;SDS011;64307;52.508;6.090;2023-07-20T06:10:51;1.90;;;0.43;;
75691;SDS011;64307;52.508;6.090;2023-07-20T06:13:17;1.90;;;0.30;;
75691;SDS011;64307;52.508;6.090;2023-07-20T06:15:42;4.43;;;0.38;;
75691;SDS011;64307;52.508;6.090;2023-07-20T06:18:08;1.92;;;0.22;;
75691;SDS011;64307;52.508;6.090;2023-07-20T06:20:34;4.68;;;0.38;;
75691;SDS011;64307;52.508;6.090;2023-07-20T06:23:00;1.52;;;0.22;;
75691;SDS011;64307;52.508;6.090;2023-07-20T06:25:25;3.23;;;0.27;;
75691;SDS011;64307;52.508;6.090;2023-07-20T06:27:51;2.97;;;0.20;;
75691;SDS011;64307;52.508;6.090;2023-07-20T06:30:16;3.42;;;0.30;;
75691;SDS011;64307;52.508;6.090;2023-07-20T06:32:42;3.35;;;0.43;;
75691;SDS011;64307;52.508;6.090;2023-07-20T06:35:07;3.40;;;0.30;;
75691;SDS011;64307;52.508;6.090;2023-07-20T06:37:33;2.45;;;0.22;;
75691;SDS011;64307;52.508;6.090;2023-07-20T06:39:59;2.13;;;0.25;;
75691;SDS011;64307;52.508;6.090;2023-07-20T06:42:24;2.00;;;0.50;;
75691;SDS011;64307;52.508;6.090;2023-07-20T06:44:49;3.67;;;0.40;;
75691;SDS011;64307;52.508;6.090;2023-07-20T06:47:14;3.73;;;0.33;;
75691;SDS011;64307;52.508;6.090;2023-07-20T06:49:40;2.45;;;0.38;;
75691;SDS011;64307;52.508;6.090;2023-07-20T06:52:06;1.75;;;0.22;;
75691;SDS011;64307;52.508;6.090;2023-07-20T06:54:31;2.08;;;0.32;;
75691;SDS011;64307;52.508;6.090;2023-07-20T06:56:57;1.35;;;0.30;;
75691;SDS011;64307;52.508;6.090;2023-07-20T06:59:22;1.90;;;0.35;;
75691;SDS011;64307;52.508;6.090;2023-07-20T07:01:49;3.33;;;0.90;;
75691;SDS011;64307;52.508;6.090;2023-07-20T07:04:14;4.18;;;0.35;;
75691;SDS011;64307;52.508;6.090;2023-07-20T07:06:40;1.65;;;0.20;;
75691;SDS011;64307;52.508;6.090;2023-07-20T07:09:06;2.88;;;0.40;;
75691;SDS011;64307;52.508;6.090;2023-07-20T07:11:31;3.15;;;0.50;;
75691;SDS011;64307;52.508;6.090;2023-07-20T07:13:56;1.43;;;0.40;;
75691;SDS011;64307;52.508;6.090;2023-07-20T07:16:21;1.88;;;0.40;;
75691;SDS011;64307;52.508;6.090;2023-07-20T07:18:47;1.77;;;0.40;;
75691;SDS011;64307;52.508;6.090;2023-07-20T07:21:13;5.55;;;0.40;;
75691;SDS011;64307;52.508;6.090;2023-07-20T07:23:39;3.58;;;0.50;;
75691;SDS011;64307;52.508;6.090;2023-07-20T07:26:04;2.55;;;0.38;;
75691;SDS011;64307;52.508;6.090;2023-07-20T07:28:30;2.28;;;0.43;;
75691;SDS011;64307;52.508;6.090;2023-07-20T07:30:56;2.53;;;0.40;;
75691;SDS011;64307;52.508;6.090;2023-07-20T07:33:22;2.15;;;0.47;;
75691;SDS011;64307;52.508;6.090;2023-07-20T07:35:47;1.60;;;0.30;;
75691;SDS011;64307;52.508;6.090;2023-07-20T07:38:14;2.65;;;0.50;;
75691;SDS011;64307;52.508;6.090;2023-07-20T07:40:39;2.55;;;0.32;;
75691;SDS011;64307;52.508;6.090;2023-07-20T07:43:05;3.67;;;0.45;;
75691;SDS011;64307;52.508;6.090;2023-07-20T07:45:33;1.38;;;0.40;;
75691;SDS011;64307;52.508;6.090;2023-07-20T07:48:00;1.65;;;0.30;;
75691;SDS011;64307;52.508;6.090;2023-07-20T07:50:26;1.67;;;0.30;;
75691;SDS011;64307;52.508;6.090;2023-07-20T07:52:52;2.03;;;0.50;;
75691;SDS011;64307;52.508;6.090;2023-07-20T07:55:17;2.08;;;0.30;;
75691;SDS011;64307;52.508;6.090;2023-07-20T07:57:43;1.60;;;0.20;;
75691;SDS011;64307;52.508;6.090;2023-07-20T08:00:08;1.48;;;0.20;;
75691;SDS011;64307;52.508;6.090;2023-07-20T08:02:39;1.48;;;0.22;;
75691;SDS011;64307;52.508;6.090;2023-07-20T08:05:04;1.50;;;0.20;;
75691;SDS011;64307;52.508;6.090;2023-07-20T08:07:30;0.95;;;0.30;;
75691;SDS011;64307;52.508;6.090;2023-07-20T08:09:55;1.33;;;0.27;;
75691;SDS011;64307;52.508;6.090;2023-07-20T08:12:20;1.90;;;0.40;;
75691;SDS011;64307;52.508;6.090;2023-07-20T08:14:46;1.85;;;0.40;;
75691;SDS011;64307;52.508;6.090;2023-07-20T08:17:11;1.27;;;0.40;;
75691;SDS011;64307;52.508;6.090;2023-07-20T08:19:37;1.80;;;0.50;;
75691;SDS011;64307;52.508;6.090;2023-07-20T08:22:04;1.63;;;0.32;;
75691;SDS011;64307;52.508;6.090;2023-07-20T08:24:30;1.60;;;0.47;;
75691;SDS011;64307;52.508;6.090;2023-07-20T08:26:55;2.95;;;0.35;;
75691;SDS011;64307;52.508;6.090;2023-07-20T08:29:20;0.90;;;0.20;;
75691;SDS011;64307;52.508;6.090;2023-07-20T08:31:46;2.28;;;0.30;;
75691;SDS011;64307;52.508;6.090;2023-07-20T08:34:11;1.88;;;0.43;;
75691;SDS011;64307;52.508;6.090;2023-07-20T08:36:36;2.10;;;0.52;;
75691;SDS011;64307;52.508;6.090;2023-07-20T08:39:02;1.40;;;0.20;;
75691;SDS011;64307;52.508;6.090;2023-07-20T08:41:28;1.45;;;0.40;;
75691;SDS011;64307;52.508;6.090;2023-07-20T08:43:54;3.15;;;0.82;;
75691;SDS011;64307;52.508;6.090;2023-07-20T08:46:22;6.20;;;3.35;;
75691;SDS011;64307;52.508;6.090;2023-07-20T08:48:49;4.22;;;1.33;;
75691;SDS011;64307;52.508;6.090;2023-07-20T08:51:16;1.60;;;0.60;;
75691;SDS011;64307;52.508;6.090;2023-07-20T08:53:41;2.53;;;0.77;;
75691;SDS011;64307;52.508;6.090;2023-07-20T08:56:10;3.15;;;0.40;;
75691;SDS011;64307;52.508;6.090;2023-07-20T08:58:36;3.67;;;0.30;;
75691;SDS011;64307;52.508;6.090;2023-07-20T09:01:02;2.60;;;0.40;;
75691;SDS011;64307;52.508;6.090;2023-07-20T09:03:28;2.00;;;0.30;;
75691;SDS011;64307;52.508;6.090;2023-07-20T09:05:53;2.13;;;0.35;;
75691;SDS011;64307;52.508;6.090;2023-07-20T09:08:19;2.60;;;0.35;;
75691;SDS011;64307;52.508;6.090;2023-07-20T09:10:44;1.63;;;0.50;;
75691;SDS011;64307;52.508;6.090;2023-07-20T09:13:15;1.35;;;0.25;;
75691;SDS011;64307;52.508;6.090;2023-07-20T09:15:47;1.20;;;0.35;;
75691;SDS011;64307;52.508;6.090;2023-07-20T09:18:22;1.05;;;0.28;;
75691;SDS011;64307;52.508;6.090;2023-07-20T09:20:49;1.60;;;0.38;;
75691;SDS011;64307;52.508;6.090;2023-07-20T09:23:14;3.35;;;0.90;;
75691;SDS011;64307;52.508;6.090;2023-07-20T09:25:39;1.75;;;0.80;;
75691;SDS011;64307;52.508;6.090;2023-07-20T09:28:05;2.08;;;0.63;;
75691;SDS011;64307;52.508;6.090;2023-07-20T09:30:31;2.13;;;0.65;;
75691;SDS011;64307;52.508;6.090;2023-07-20T09:32:56;2.80;;;0.82;;
75691;SDS011;64307;52.508;6.090;2023-07-20T09:35:22;4.32;;;0.90;;
75691;SDS011;64307;52.508;6.090;2023-07-20T09:40:19;2.80;;;0.90;;
75691;SDS011;64307;52.508;6.090;2023-07-20T09:42:45;2.20;;;0.70;;
75691;SDS011;64307;52.508;6.090;2023-07-20T09:45:10;2.90;;;0.80;;
75691;SDS011;64307;52.508;6.090;2023-07-20T09:47:36;2.45;;;0.93;;
75691;SDS011;64307;52.508;6.090;2023-07-20T09:50:03;2.65;;;0.90;;
75691;SDS011;64307;52.508;6.090;2023-07-20T09:52:29;2.80;;;0.93;;
75691;SDS011;64307;52.508;6.090;2023-07-20T09:54:55;5.35;;;0.93;;
75691;SDS011;64307;52.508;6.090;2023-07-20T09:57:22;2.35;;;0.80;;
75691;SDS011;64307;52.508;6.090;2023-07-20T09:59:48;2.40;;;0.85;;
75691;SDS011;64307;52.508;6.090;2023-07-20T10:02:20;2.70;;;0.80;;
75691;SDS011;64307;52.508;6.090;2023-07-20T10:04:47;2.10;;;0.73;;
75691;SDS011;64307;52.508;6.090;2023-07-20T10:07:17;3.63;;;0.60;;
75691;SDS011;64307;52.508;6.090;2023-07-20T10:09:46;2.42;;;0.82;;
75691;SDS011;64307;52.508;6.090;2023-07-20T10:12:13;3.05;;;0.43;;
75691;SDS011;64307;52.508;6.090;2023-07-20T10:14:43;1.83;;;0.45;;
75691;SDS011;64307;52.508;6.090;2023-07-20T10:17:12;1.20;;;0.32;;
75691;SDS011;64307;52.508;6.090;2023-07-20T10:19:44;3.38;;;0.50;;
75691;SDS011;64307;52.508;6.090;2023-07-20T10:22:17;3.22;;;0.75;;
75691;SDS011;64307;52.508;6.090;2023-07-20T10:24:47;2.83;;;0.50;;
75691;SDS011;64307;52.508;6.090;2023-07-20T10:27:13;2.35;;;0.50;;
75691;SDS011;64307;52.508;6.090;2023-07-20T10:29:40;2.15;;;0.93;;
75691;SDS011;64307;52.508;6.090;2023-07-20T10:32:06;1.85;;;0.35;;
75691;SDS011;64307;52.508;6.090;2023-07-20T10:34:33;3.03;;;0.50;;
75691;SDS011;64307;52.508;6.090;2023-07-20T10:36:58;1.77;;;0.60;;
75691;SDS011;64307;52.508;6.090;2023-07-20T10:39:24;2.47;;;0.50;;
75691;SDS011;64307;52.508;6.090;2023-07-20T10:41:59;1.85;;;0.70;;
75691;SDS011;64307;52.508;6.090;2023-07-20T10:44:44;1.77;;;0.32;;
75691;SDS011;64307;52.508;6.090;2023-07-20T10:47:12;1.67;;;0.40;;
75691;SDS011;64307;52.508;6.090;2023-07-20T10:49:57;1.63;;;0.47;;
75691;SDS011;64307;52.508;6.090;2023-07-20T10:52:23;2.47;;;0.57;;
75691;SDS011;64307;52.508;6.090;2023-07-20T10:54:49;1.92;;;0.40;;
75691;SDS011;64307;52.508;6.090;2023-07-20T10:57:21;2.70;;;0.60;;
75691;SDS011;64307;52.508;6.090;2023-07-20T10:59:53;1.90;;;0.50;;
75691;SDS011;64307;52.508;6.090;2023-07-20T11:02:48;2.63;;;0.60;;
75691;SDS011;64307;52.508;6.090;2023-07-20T11:05:57;2.85;;;0.60;;
75691;SDS011;64307;52.508;6.090;2023-07-20T11:08:05;2.58;;;0.70;;
75691;SDS011;64307;52.508;6.090;2023-07-20T11:10:35;1.98;;;0.73;;
75691;SDS011;64307;52.508;6.090;2023-07-20T11:18:24;2.95;;;0.60;;
75691;SDS011;64307;52.508;6.090;2023-07-20T11:20:50;3.13;;;0.95;;
75691;SDS011;64307;52.508;6.090;2023-07-20T11:23:16;1.83;;;0.50;;
75691;SDS011;64307;52.508;6.090;2023-07-20T11:25:42;2.45;;;0.70;;
75691;SDS011;64307;52.508;6.090;2023-07-20T11:28:07;2.35;;;0.52;;
75691;SDS011;64307;52.508;6.090;2023-07-20T11:30:35;2.55;;;0.50;;
75691;SDS011;64307;52.508;6.090;2023-07-20T11:33:01;3.22;;;0.70;;
75691;SDS011;64307;52.508;6.090;2023-07-20T11:35:26;2.17;;;0.65;;
75691;SDS011;64307;52.508;6.090;2023-07-20T11:37:52;2.38;;;0.70;;
75691;SDS011;64307;52.508;6.090;2023-07-20T11:40:17;2.40;;;0.40;;
75691;SDS011;64307;52.508;6.090;2023-07-20T11:42:42;2.00;;;0.43;;
75691;SDS011;64307;52.508;6.090;2023-07-20T11:45:08;2.83;;;0.68;;
75691;SDS011;64307;52.508;6.090;2023-07-20T11:47:34;2.30;;;0.50;;
75691;SDS011;64307;52.508;6.090;2023-07-20T11:50:07;2.50;;;0.60;;
75691;SDS011;64307;52.508;6.090;2023-07-20T11:52:32;2.10;;;0.50;;
75691;SDS011;64307;52.508;6.090;2023-07-20T11:54:58;2.08;;;0.60;;
75691;SDS011;64307;52.508;6.090;2023-07-20T11:57:23;3.67;;;0.85;;
75691;SDS011;64307;52.508;6.090;2023-07-20T11:59:55;2.58;;;0.45;;
75691;SDS011;64307;52.508;6.090;2023-07-20T12:02:22;2.40;;;0.90;;
75691;SDS011;64307;52.508;6.090;2023-07-20T12:04:48;2.67;;;0.60;;
75691;SDS011;64307;52.508;6.090;2023-07-20T12:07:13;1.70;;;0.50;;
75691;SDS011;64307;52.508;6.090;2023-07-20T12:09:39;2.42;;;0.70;;
75691;SDS011;64307;52.508;6.090;2023-07-20T12:12:09;2.57;;;0.60;;
75691;SDS011;64307;52.508;6.090;2023-07-20T12:14:36;3.20;;;0.65;;
75691;SDS011;64307;52.508;6.090;2023-07-20T12:17:02;2.20;;;0.63;;
75691;SDS011;64307;52.508;6.090;2023-07-20T12:19:27;1.52;;;0.50;;
75691;SDS011;64307;52.508;6.090;2023-07-20T12:21:56;1.73;;;0.50;;
75691;SDS011;64307;52.508;6.090;2023-07-20T12:24:24;1.73;;;0.50;;
75691;SDS011;64307;52.508;6.090;2023-07-20T12:26:55;1.60;;;0.43;;
75691;SDS011;64307;52.508;6.090;2023-07-20T12:29:22;1.63;;;0.40;;
75691;SDS011;64307;52.508;6.090;2023-07-20T12:31:47;2.57;;;0.40;;
75691;SDS011;64307;52.508;6.090;2023-07-20T12:34:12;1.90;;;0.40;;
75691;SDS011;64307;52.508;6.090;2023-07-20T12:36:38;1.30;;;0.87;;
75691;SDS011;64307;52.508;6.090;2023-07-20T12:39:03;3.00;;;0.43;;
75691;SDS011;64307;52.508;6.090;2023-07-20T12:41:30;3.08;;;0.60;;
75691;SDS011;64307;52.508;6.090;2023-07-20T12:43:55;1.40;;;0.40;;
75691;SDS011;64307;52.508;6.090;2023-07-20T12:46:22;1.70;;;0.57;;
75691;SDS011;64307;52.508;6.090;2023-07-20T12:48:48;1.20;;;0.40;;
75691;SDS011;64307;52.508;6.090;2023-07-20T12:51:14;2.70;;;0.30;;
75691;SDS011;64307;52.508;6.090;2023-07-20T12:53:39;3.03;;;0.38;;
75691;SDS011;64307;52.508;6.090;2023-07-20T12:56:04;2.05;;;0.65;;
75691;SDS011;64307;52.508;6.090;2023-07-20T12:58:30;1.60;;;0.30;;
75691;SDS011;64307;52.508;6.090;2023-07-20T13:00:55;2.08;;;0.30;;
75691;SDS011;64307;52.508;6.090;2023-07-20T13:03:21;1.00;;;0.20;;
75691;SDS011;64307;52.508;6.090;2023-07-20T13:05:46;1.15;;;0.32;;
75691;SDS011;64307;52.508;6.090;2023-07-20T13:08:12;1.48;;;0.30;;
75691;SDS011;64307;52.508;6.090;2023-07-20T13:10:38;2.75;;;0.40;;
75691;SDS011;64307;52.508;6.090;2023-07-20T13:13:03;1.75;;;0.35;;
75691;SDS011;64307;52.508;6.090;2023-07-20T13:15:29;1.35;;;0.30;;
75691;SDS011;64307;52.508;6.090;2023-07-20T13:17:56;2.38;;;0.35;;
75691;SDS011;64307;52.508;6.090;2023-07-20T13:20:22;1.38;;;0.30;;
75691;SDS011;64307;52.508;6.090;2023-07-20T13:22:47;2.35;;;0.45;;
75691;SDS011;64307;52.508;6.090;2023-07-20T13:25:13;1.08;;;0.25;;
75691;SDS011;64307;52.508;6.090;2023-07-20T13:27:38;1.15;;;0.38;;
75691;SDS011;64307;52.508;6.090;2023-07-20T13:30:03;1.90;;;0.70;;
75691;SDS011;64307;52.508;6.090;2023-07-20T13:32:32;2.17;;;0.20;;
75691;SDS011;64307;52.508;6.090;2023-07-20T13:34:58;1.05;;;0.10;;
75691;SDS011;64307;52.508;6.090;2023-07-20T13:37:23;1.65;;;0.30;;
75691;SDS011;64307;52.508;6.090;2023-07-20T13:39:48;1.23;;;0.30;;
75691;SDS011;64307;52.508;6.090;2023-07-20T13:42:15;2.25;;;0.30;;
75691;SDS011;64307;52.508;6.090;2023-07-20T13:44:42;1.25;;;0.20;;
75691;SDS011;64307;52.508;6.090;2023-07-20T13:47:07;4.57;;;0.40;;
75691;SDS011;64307;52.508;6.090;2023-07-20T13:49:32;2.75;;;0.45;;
75691;SDS011;64307;52.508;6.090;2023-07-20T13:51:58;0.82;;;0.20;;
75691;SDS011;64307;52.508;6.090;2023-07-20T13:54:24;1.98;;;0.20;;
75691;SDS011;64307;52.508;6.090;2023-07-20T13:56:49;2.28;;;0.32;;
75691;SDS011;64307;52.508;6.090;2023-07-20T13:59:15;1.95;;;0.30;;
75691;SDS011;64307;52.508;6.090;2023-07-20T14:01:40;1.55;;;0.32;;
75691;SDS011;64307;52.508;6.090;2023-07-20T14:04:06;2.20;;;0.30;;
75691;SDS011;64307;52.508;6.090;2023-07-20T14:06:32;14.95;;;7.18;;
75691;SDS011;64307;52.508;6.090;2023-07-20T14:08:58;1.42;;;0.45;;
75691;SDS011;64307;52.508;6.090;2023-07-20T14:11:24;0.77;;;0.25;;
75691;SDS011;64307;52.508;6.090;2023-07-20T14:13:50;1.33;;;0.30;;
75691;SDS011;64307;52.508;6.090;2023-07-20T14:16:21;2.50;;;0.45;;
75691;SDS011;64307;52.508;6.090;2023-07-20T14:18:47;2.00;;;0.43;;
75691;SDS011;64307;52.508;6.090;2023-07-20T14:21:14;1.88;;;0.60;;
75691;SDS011;64307;52.508;6.090;2023-07-20T14:23:41;1.50;;;0.28;;
75691;SDS011;64307;52.508;6.090;2023-07-20T14:26:06;1.95;;;0.50;;
75691;SDS011;64307;52.508;6.090;2023-07-20T14:28:33;2.53;;;0.32;;
75691;SDS011;64307;52.508;6.090;2023-07-20T14:30:59;2.70;;;0.45;;
75691;SDS011;64307;52.508;6.090;2023-07-20T14:33:24;1.20;;;0.30;;
75691;SDS011;64307;52.508;6.090;2023-07-20T14:35:50;2.22;;;0.40;;
75691;SDS011;64307;52.508;6.090;2023-07-20T14:38:15;1.90;;;0.47;;
75691;SDS011;64307;52.508;6.090;2023-07-20T14:40:40;2.40;;;0.32;;
75691;SDS011;64307;52.508;6.090;2023-07-20T14:43:06;1.95;;;0.40;;
75691;SDS011;64307;52.508;6.090;2023-07-20T14:45:32;2.63;;;0.30;;
75691;SDS011;64307;52.508;6.090;2023-07-20T14:47:57;1.35;;;0.38;;
75691;SDS011;64307;52.508;6.090;2023-07-20T14:50:22;2.05;;;0.20;;
75691;SDS011;64307;52.508;6.090;2023-07-20T14:52:48;3.95;;;0.43;;
75691;SDS011;64307;52.508;6.090;2023-07-20T14:55:14;4.00;;;0.45;;
75691;SDS011;64307;52.508;6.090;2023-07-20T14:57:39;1.27;;;0.38;;